Terminal Aerodrome Forecast
Issued by NWS Atlanta, GA

Home | Current Version | Previous Version | Text Only | Print | Product List | Glossary On
Versions: 1 2 3 4 5 6 7 8 9 10 11 12 13 14 15 16 17 18 19 20 21 22 23 24 25 26 27 28 29 30 31 32 33 34 35 36
000
FTUS42 KFFC 311000 AAB
TAFAHN
TAF AMD
KAHN 311043Z 3111/0106 00000KT 6SM BR SCT003 BKN070
      TEMPO 3111/3113 3SM BR BKN003
     FM311400 21004KT P6SM SCT020 SCT150
     FM311800 24006KT P6SM SCT060 SCT150
     FM010100 00000KT P6SM FEW050 SCT250=

USA.gov is the U.S. government's official web portal to all federal, state and local government web resources and services.